Time;durP1;ratioP1;P1;durP2;ratioP2;P2;SDS_P1;SDS_P2;PMS_P1;PMS_P2;Temp;Humidity;BMP_temperature;BMP_pressure;BME280_temperature;BME280_humidity;BME280_pressure;Samples;Min_cycle;Max_cycle;Signal;HPM_P1;HPM_P2
2022/08/22 00:01:10;;;;;;;8.07;3.03;;;;;;;15.92;100.00;101104.31;5094984;28;20451;-68
2022/08/22 00:03:47;;;;;;;4.00;2.43;;;;;;;15.98;100.00;101100.31;5094892;28;20420;-68
2022/08/22 00:06:20;;;;;;;5.83;3.30;;;;;;;16.00;100.00;101100.78;5094385;28;20982;-70
2022/08/22 00:09:00;;;;;;;5.53;2.27;;;;;;;16.01;100.00;101093.38;5094634;28;20522;-67
2022/08/22 00:11:38;;;;;;;7.10;3.10;;;;;;;16.02;100.00;101100.44;5094695;28;20424;-69
2022/08/22 00:14:30;;;;;;;7.53;3.00;;;;;;;16.03;100.00;101104.78;5094625;28;20429;-69
2022/08/22 00:17:02;;;;;;;8.30;3.13;;;;;;;16.02;100.00;101103.97;5094492;28;20464;-68
2022/08/22 00:19:43;;;;;;;7.20;2.27;;;;;;;16.00;100.00;101108.97;5094573;28;20428;-68
2022/08/22 00:22:20;;;;;;;6.27;2.50;;;;;;;15.94;100.00;101106.72;5094524;28;20425;-68
2022/08/22 00:24:52;;;;;;;4.77;2.50;;;;;;;15.92;100.00;101101.59;5094478;28;20429;-68
2022/08/22 00:27:25;;;;;;;7.87;2.63;;;;;;;15.93;100.00;101103.19;5093879;28;20488;-68
2022/08/22 00:29:56;;;;;;;5.20;2.47;;;;;;;15.80;100.00;101099.50;5094335;28;20425;-68
2022/08/22 00:32:27;;;;;;;5.20;3.10;;;;;;;15.73;100.00;101103.88;5094326;28;20440;-68
2022/08/22 00:34:58;;;;;;;5.90;2.70;;;;;;;15.75;100.00;101102.41;5094277;28;20424;-68
2022/08/22 00:37:31;;;;;;;6.30;3.50;;;;;;;15.72;100.00;101102.28;5093839;28;20833;-68
2022/08/22 00:40:04;;;;;;;5.00;2.40;;;;;;;15.66;100.00;101109.81;5094084;28;20420;-68
2022/08/22 00:43:04;;;;;;;6.43;3.07;;;;;;;15.53;100.00;101110.75;5094006;28;20495;-68
2022/08/22 00:45:55;;;;;;;5.40;2.80;;;;;;;15.39;100.00;101108.97;5094082;28;20488;-68
2022/08/22 00:48:54;;;;;;;5.57;2.70;;;;;;;15.34;100.00;101109.13;5086504;28;20490;-67
2022/08/22 00:51:47;;;;;;;4.80;2.47;;;;;;;15.32;100.00;101103.22;5091990;28;20449;-67
2022/08/22 00:54:23;;;;;;;7.93;3.60;;;;;;;15.41;100.00;101100.47;5091248;28;20454;-68
2022/08/22 00:57:05;;;;;;;6.17;2.90;;;;;;;15.35;100.00;101108.00;5094162;28;20460;-68
2022/08/22 01:00:03;;;;;;;5.10;2.63;;;;;;;15.38;100.00;101107.38;5093810;28;20474;-68
2022/08/22 01:02:37;;;;;;;6.03;3.10;;;;;;;15.27;100.00;101097.09;5093867;28;20478;-68
2022/08/22 01:05:34;;;;;;;8.80;3.17;;;;;;;15.21;100.00;101101.09;5093719;28;20428;-68
2022/08/22 01:08:19;;;;;;;5.10;2.43;;;;;;;15.24;100.00;101100.47;5093427;28;20813;-68
2022/08/22 01:11:01;;;;;;;5.10;2.90;;;;;;;15.33;100.00;101104.00;5093651;28;20424;-68
2022/08/22 01:13:43;;;;;;;5.63;2.67;;;;;;;15.28;100.00;101104.97;5093409;28;20437;-68
2022/08/22 01:16:25;;;;;;;4.23;2.43;;;;;;;15.06;100.00;101105.09;5093481;28;20467;-68
2022/08/22 01:19:08;;;;;;;7.53;3.43;;;;;;;15.14;100.00;101112.50;5093164;28;20421;-67
2022/08/22 01:21:54;;;;;;;6.00;2.80;;;;;;;15.11;100.00;101115.84;5093580;28;20413;-68
2022/08/22 01:28:12;;;;;;;5.27;2.03;;;;;;;15.13;100.00;101124.50;5093240;28;20460;-69
2022/08/22 01:31:02;;;;;;;5.13;2.60;;;;;;;15.03;100.00;101122.91;5093430;28;20428;-68
2022/08/22 01:33:50;;;;;;;5.50;2.80;;;;;;;15.01;100.00;101124.34;5070406;28;20463;-68
2022/08/22 01:36:36;;;;;;;4.60;2.50;;;;;;;15.03;100.00;101127.56;5093167;28;20496;-68
2022/08/22 01:39:22;;;;;;;6.20;3.00;;;;;;;15.07;100.00;101125.81;5092974;28;20969;-68
2022/08/22 01:42:21;;;;;;;10.20;3.10;;;;;;;15.13;100.00;101129.97;5093221;28;20428;-67
2022/08/22 01:45:37;;;;;;;5.40;2.93;;;;;;;15.16;100.00;101134.81;5091259;28;20449;-67
2022/08/22 01:48:11;;;;;;;6.40;3.20;;;;;;;15.01;100.00;101130.59;5088566;28;20484;-70
2022/08/22 01:50:43;;;;;;;5.43;2.90;;;;;;;15.06;100.00;101130.47;5093299;28;20436;-69
2022/08/22 01:53:18;;;;;;;5.20;3.00;;;;;;;15.07;100.00;101121.16;5096403;28;20777;-70
2022/08/22 01:55:56;;;;;;;5.63;3.13;;;;;;;14.98;100.00;101125.78;5097212;28;20459;-70
2022/08/22 01:58:26;;;;;;;8.00;3.37;;;;;;;15.01;100.00;101122.44;5097369;28;20424;-70
2022/08/22 02:01:03;;;;;;;4.97;2.70;;;;;;;15.04;100.00;101131.88;5097255;28;20417;-70
2022/08/22 02:03:33;;;;;;;5.80;3.00;;;;;;;15.07;100.00;101126.59;5097381;28;20428;-70
2022/08/22 02:06:05;;;;;;;7.90;3.20;;;;;;;14.95;100.00;101134.59;5097133;28;20467;-69
2022/08/22 02:08:41;;;;;;;4.90;2.43;;;;;;;14.83;100.00;101132.50;5096962;28;20466;-69
2022/08/22 02:11:10;;;;;;;7.10;3.63;;;;;;;14.84;100.00;101131.34;5097186;28;20776;-69
2022/08/22 02:13:49;;;;;;;5.73;2.67;;;;;;;14.87;100.00;101132.63;5096705;28;20958;-69
2022/08/22 02:16:25;;;;;;;5.27;2.73;;;;;;;14.86;100.00;101131.03;5096852;28;20464;-70
2022/08/22 02:19:05;;;;;;;6.30;2.70;;;;;;;14.75;100.00;101129.72;5096882;28;20416;-70
2022/08/22 02:21:42;;;;;;;5.80;2.67;;;;;;;14.80;100.00;101132.31;5096501;28;20420;-70
2022/08/22 02:24:21;;;;;;;7.40;3.30;;;;;;;14.83;100.00;101129.75;5096844;28;20420;-70
2022/08/22 02:27:03;;;;;;;4.63;2.37;;;;;;;14.85;100.00;101129.44;5096402;28;20571;-70
2022/08/22 02:29:38;;;;;;;5.80;3.70;;;;;;;14.87;100.00;101130.75;5096749;28;20460;-70
2022/08/22 02:32:15;;;;;;;7.00;3.43;;;;;;;14.81;100.00;101129.25;5096791;28;20424;-70
2022/08/22 02:34:46;;;;;;;4.73;2.57;;;;;;;14.71;100.00;101129.56;5096528;28;20425;-70
2022/08/22 02:37:17;;;;;;;6.63;2.50;;;;;;;14.57;100.00;101124.22;5096409;28;20460;-69
2022/08/22 02:39:52;;;;;;;9.17;2.90;;;;;;;14.44;100.00;101129.72;5096562;28;20561;-69
2022/08/22 02:42:26;;;;;;;4.70;2.60;;;;;;;14.44;100.00;101130.53;5096460;28;20451;-70
2022/08/22 02:45:02;;;;;;;6.80;3.03;;;;;;;14.55;100.00;101126.44;5096347;28;20463;-71
2022/08/22 02:47:35;;;;;;;4.70;2.70;;;;;;;14.67;100.00;101122.31;5096265;28;20424;-70
2022/08/22 02:50:13;;;;;;;5.70;2.83;;;;;;;14.63;100.00;101128.38;5096111;28;20425;-70
2022/08/22 02:52:50;;;;;;;8.27;2.73;;;;;;;14.54;100.00;101121.31;5096614;28;20429;-70
2022/08/22 02:55:28;;;;;;;7.77;2.90;;;;;;;14.54;100.00;101124.81;5096376;28;20428;-70
2022/08/22 02:58:02;;;;;;;5.03;2.70;;;;;;;14.48;100.00;101114.34;5095857;28;20800;-69
2022/08/22 03:00:41;;;;;;;9.10;3.50;;;;;;;14.27;100.00;101119.53;5096017;28;20432;-69
2022/08/22 03:03:20;;;;;;;4.63;2.60;;;;;;;14.36;100.00;101118.47;5095348;28;20424;-70
2022/08/22 03:06:00;;;;;;;5.60;2.73;;;;;;;14.43;100.00;101117.19;5096017;28;20464;-70
2022/08/22 03:08:29;;;;;;;5.20;2.73;;;;;;;14.57;100.00;101123.41;5095864;28;20460;-70
2022/08/22 03:11:06;;;;;;;9.43;3.90;;;;;;;14.45;100.00;101113.06;5096079;28;20492;-70
2022/08/22 03:13:50;;;;;;;5.63;2.90;;;;;;;14.54;100.00;101107.66;5095554;28;20899;-70
2022/08/22 03:16:26;;;;;;;15.63;2.60;;;;;;;14.51;100.00;101117.25;5095868;28;20452;-69
2022/08/22 03:18:59;;;;;;;6.23;2.70;;;;;;;14.38;100.00;101118.94;5095458;28;20887;-70
2022/08/22 03:21:32;;;;;;;5.23;2.63;;;;;;;14.50;100.00;101117.59;5095737;28;20424;-70
2022/08/22 03:24:05;;;;;;;6.40;2.80;;;;;;;14.37;100.00;101114.63;5095765;28;20460;-70
2022/08/22 03:26:43;;;;;;;5.70;2.57;;;;;;;14.42;100.00;101110.94;5095274;28;20472;-69
2022/08/22 03:29:17;;;;;;;5.90;3.23;;;;;;;14.30;100.00;101108.03;5095489;28;20472;-70
2022/08/22 03:32:10;;;;;;;5.27;2.67;;;;;;;14.26;100.00;101107.84;5095528;28;20420;-70
2022/08/22 03:34:37;;;;;;;6.03;2.50;;;;;;;14.33;100.00;101104.66;5095553;28;20823;-70
2022/08/22 03:37:12;;;;;;;6.07;2.90;;;;;;;14.36;100.00;101101.31;5095240;28;20463;-70
2022/08/22 03:39:48;;;;;;;7.13;2.97;;;;;;;14.31;100.00;101115.06;5095630;28;20416;-69
2022/08/22 03:42:42;;;;;;;5.00;2.73;;;;;;;14.28;100.00;101121.13;5095252;28;20494;-70
2022/08/22 03:45:22;;;;;;;6.30;2.87;;;;;;;14.26;100.00;101126.13;5095231;28;20428;-70
2022/08/22 03:48:05;;;;;;;5.40;2.33;;;;;;;14.23;100.00;101113.09;5095251;28;20511;-70
2022/08/22 03:50:55;;;;;;;4.53;2.40;;;;;;;14.22;100.00;101117.75;5095343;28;20860;-70
2022/08/22 03:54:07;;;;;;;5.00;2.23;;;;;;;14.29;100.00;101109.91;5095144;28;20420;-69
2022/08/22 03:57:10;;;;;;;5.10;2.80;;;;;;;14.26;100.00;101117.94;5075549;28;20457;-70
2022/08/22 04:00:04;;;;;;;7.10;3.10;;;;;;;14.25;100.00;101128.00;5095090;28;20429;-70
2022/08/22 04:03:03;;;;;;;4.53;2.50;;;;;;;14.19;100.00;101123.00;5095055;28;20428;-69
2022/08/22 04:06:01;;;;;;;6.03;3.20;;;;;;;14.07;100.00;101127.09;5094727;28;20521;-70
2022/08/22 04:08:54;;;;;;;6.00;2.87;;;;;;;14.07;100.00;101129.03;5094391;28;20480;-70
2022/08/22 04:11:52;;;;;;;4.80;2.60;;;;;;;14.20;100.00;101136.31;5092635;28;20444;-70
2022/08/22 04:14:43;;;;;;;5.27;2.77;;;;;;;14.13;100.00;101130.53;5094705;28;20859;-71
2022/08/22 04:17:34;;;;;;;4.50;1.97;;;;;;;14.15;100.00;101139.19;5092852;28;20504;-69
2022/08/22 04:20:24;;;;;;;8.43;3.00;;;;;;;14.23;100.00;101140.34;5094701;28;20417;-69
2022/08/22 04:23:18;;;;;;;5.03;2.93;;;;;;;14.39;100.00;101136.94;5094491;28;20428;-70
2022/08/22 04:25:51;;;;;;;6.20;3.00;;;;;;;14.45;100.00;101132.13;5094481;28;20484;-69
2022/08/22 04:28:28;;;;;;;7.77;3.30;;;;;;;14.51;100.00;101139.06;5115788;23;21025;-70
2022/08/22 04:31:01;;;;;;;5.40;3.00;;;;;;;14.44;100.00;101146.09;5094334;28;20435;-69
2022/08/22 04:33:35;;;;;;;6.80;3.03;;;;;;;14.38;100.00;101143.47;5094235;28;20439;-69
2022/08/22 04:36:13;;;;;;;5.40;2.90;;;;;;;14.32;100.00;101149.38;5094172;28;20430;-70
2022/08/22 04:38:46;;;;;;;6.40;3.07;;;;;;;14.33;100.00;101151.78;5094055;28;20488;-69
2022/08/22 04:41:18;;;;;;;5.73;2.47;;;;;;;14.42;100.00;101153.75;5093913;28;20793;-69
2022/08/22 04:43:50;;;;;;;5.97;2.77;;;;;;;14.49;100.00;101154.16;5094041;28;20424;-69
2022/08/22 04:46:25;;;;;;;5.20;2.37;;;;;;;14.55;100.00;101153.69;5094042;28;20435;-68
2022/08/22 04:49:01;;;;;;;10.17;2.73;;;;;;;14.61;100.00;101157.09;5093808;28;20542;-70
2022/08/22 04:51:35;;;;;;;4.67;2.70;;;;;;;14.70;100.00;101160.69;5093597;28;20420;-69
2022/08/22 04:54:23;;;;;;;6.37;3.10;;;;;;;14.85;100.00;101160.25;5093837;28;20413;-69
2022/08/22 04:57:10;;;;;;;6.47;2.93;;;;;;;14.91;100.00;101171.00;5093696;28;20460;-69
2022/08/22 04:59:37;;;;;;;6.43;2.70;;;;;;;14.92;100.00;101173.44;5093744;28;20433;-69
2022/08/22 05:02:08;;;;;;;6.33;2.70;;;;;;;15.01;100.00;101179.72;5093752;28;20491;-69
2022/08/22 05:04:40;;;;;;;6.03;2.40;;;;;;;15.08;100.00;101181.97;5093417;28;20926;-69
2022/08/22 05:07:10;;;;;;;12.40;2.27;;;;;;;14.96;100.00;101174.38;5093758;28;20464;-69
2022/08/22 05:09:41;;;;;;;5.80;2.53;;;;;;;14.85;100.00;101179.34;5093662;28;20537;-69
2022/08/22 05:12:13;;;;;;;5.30;2.47;;;;;;;14.81;100.00;101186.53;5093305;28;20456;-69
2022/08/22 05:14:48;;;;;;;7.63;2.60;;;;;;;14.84;100.00;101177.72;5093251;28;20425;-69
2022/08/22 05:17:20;;;;;;;6.90;2.50;;;;;;;15.02;100.00;101175.88;5093440;28;20459;-69
2022/08/22 05:19:51;;;;;;;6.53;2.83;;;;;;;15.17;100.00;101193.72;5093475;28;20427;-70
2022/08/22 05:22:23;;;;;;;6.60;2.63;;;;;;;15.24;100.00;101185.88;5093460;28;20429;-70
2022/08/22 05:24:54;;;;;;;4.70;2.57;;;;;;;15.28;100.00;101189.59;5093531;28;20429;-68
2022/08/22 05:27:25;;;;;;;5.33;2.80;;;;;;;15.37;100.00;101190.41;5092321;28;20483;-71
2022/08/22 05:29:59;;;;;;;7.83;3.03;;;;;;;15.29;100.00;101187.66;5093232;28;20468;-73
2022/08/22 05:32:29;;;;;;;7.80;2.73;;;;;;;15.38;100.00;101191.19;5093223;28;20417;-72
2022/08/22 05:35:00;;;;;;;6.07;3.13;;;;;;;15.66;100.00;101191.75;5093322;28;20449;-71
2022/08/22 05:37:36;;;;;;;5.90;3.30;;;;;;;15.78;100.00;101191.91;5093223;28;20471;-68
2022/08/22 05:40:04;;;;;;;12.60;2.97;;;;;;;15.78;100.00;101199.31;5092936;28;20420;-68
2022/08/22 05:42:35;;;;;;;5.57;2.97;;;;;;;15.81;100.00;101193.22;5093208;28;20447;-68
2022/08/22 05:45:05;;;;;;;4.87;2.50;;;;;;;15.92;100.00;101196.41;5093199;28;20425;-68
2022/08/22 05:47:36;;;;;;;4.67;2.63;;;;;;;16.05;100.00;101192.72;5093525;28;20530;-69
2022/08/22 05:50:10;;;;;;;6.00;2.17;;;;;;;16.16;100.00;101194.00;5093171;28;20467;-69
2022/08/22 05:52:48;;;;;;;4.70;2.17;;;;;;;16.09;100.00;101190.94;5093227;28;20489;-68
2022/08/22 05:55:24;;;;;;;4.90;2.53;;;;;;;16.22;100.00;101192.69;5093078;28;20435;-68
2022/08/22 05:58:16;;;;;;;5.17;2.43;;;;;;;16.31;100.00;101206.34;5092996;28;20521;-68
2022/08/22 06:00:48;;;;;;;5.90;2.47;;;;;;;16.23;100.00;101207.97;5092710;28;20903;-69
2022/08/22 06:03:20;;;;;;;6.27;2.70;;;;;;;16.29;100.00;101206.69;5092717;28;20425;-69
2022/08/22 06:05:53;;;;;;;5.73;3.07;;;;;;;16.42;100.00;101206.81;5093116;28;20417;-68
2022/08/22 06:08:23;;;;;;;6.23;2.90;;;;;;;16.57;100.00;101211.75;5092972;28;20467;-68
2022/08/22 06:10:53;;;;;;;5.80;2.70;;;;;;;16.62;100.00;101209.66;5092937;28;20469;-68
2022/08/22 06:13:31;;;;;;;6.80;2.83;;;;;;;16.70;100.00;101208.03;5092943;28;20496;-68
2022/08/22 06:16:07;;;;;;;6.20;3.00;;;;;;;16.78;100.00;101220.09;5092987;28;20433;-68
2022/08/22 06:18:37;;;;;;;5.57;2.43;;;;;;;16.82;100.00;101216.38;5092856;28;20463;-68
2022/08/22 06:21:09;;;;;;;10.60;3.40;;;;;;;16.92;100.00;101208.94;5092913;28;20432;-68
2022/08/22 06:23:41;;;;;;;6.20;2.20;;;;;;;17.01;100.00;101215.97;5092552;28;20787;-68
2022/08/22 06:26:10;;;;;;;7.50;3.40;;;;;;;17.08;100.00;101210.78;5092361;28;20428;-68
2022/08/22 06:28:40;;;;;;;6.70;3.20;;;;;;;17.17;100.00;101215.41;5092038;28;20499;-68
2022/08/22 06:31:13;;;;;;;5.70;3.00;;;;;;;17.26;100.00;101213.44;5092410;28;20444;-68
2022/08/22 06:33:41;;;;;;;4.03;1.90;;;;;;;17.37;100.00;101220.16;5092831;28;20425;-68
2022/08/22 06:36:31;;;;;;;6.20;3.00;;;;;;;17.50;100.00;101229.25;5092369;28;20939;-68
2022/08/22 06:39:07;;;;;;;6.00;2.53;;;;;;;17.60;100.00;101231.59;5095151;28;20493;-68
2022/08/22 06:41:37;;;;;;;5.53;2.97;;;;;;;17.70;100.00;101225.72;5096162;28;20800;-68
2022/08/22 06:44:07;;;;;;;4.80;2.30;;;;;;;17.80;100.00;101217.16;5096398;28;20456;-68
2022/08/22 06:46:37;;;;;;;6.43;2.80;;;;;;;17.89;100.00;101230.78;5096284;28;20436;-68
2022/08/22 06:49:06;;;;;;;10.13;2.63;;;;;;;17.95;100.00;101229.44;5096548;28;20480;-68
2022/08/22 06:51:36;;;;;;;6.63;2.60;;;;;;;18.09;100.00;101240.13;5095846;28;20942;-68
2022/08/22 06:54:06;;;;;;;7.27;3.00;;;;;;;18.18;100.00;101229.88;5095884;28;20444;-68
2022/08/22 06:56:38;;;;;;;4.57;2.20;;;;;;;18.28;100.00;101236.88;5096036;28;20455;-68
2022/08/22 06:59:11;;;;;;;4.73;2.30;;;;;;;18.37;100.00;101240.34;5096175;28;20445;-68
2022/08/22 07:02:00;;;;;;;6.93;3.23;;;;;;;18.49;100.00;101243.13;5095936;28;20428;-68
2022/08/22 07:04:27;;;;;;;6.20;2.10;;;;;;;18.61;100.00;101245.13;5096016;28;20427;-68
2022/08/22 07:06:58;;;;;;;7.60;3.17;;;;;;;18.70;100.00;101243.09;5095507;28;20464;-68
2022/08/22 07:09:28;;;;;;;6.93;3.03;;;;;;;18.81;100.00;101240.72;5095834;28;20468;-71
2022/08/22 07:11:57;;;;;;;4.80;2.00;;;;;;;18.91;100.00;101251.28;5095450;28;20455;-70
2022/08/22 07:14:29;;;;;;;9.63;2.73;;;;;;;19.00;100.00;101248.44;5095744;28;20448;-71
2022/08/22 07:16:59;;;;;;;4.57;2.00;;;;;;;19.08;100.00;101244.75;5095680;28;20467;-70
2022/08/22 07:19:28;;;;;;;6.03;2.93;;;;;;;19.16;99.69;101241.09;5096030;28;20436;-71
2022/08/22 07:21:57;;;;;;;6.13;3.00;;;;;;;19.25;99.23;101251.97;5095340;28;20425;-70
2022/08/22 07:24:28;;;;;;;7.50;3.60;;;;;;;19.33;98.46;101256.56;5095577;28;20448;-70
2022/08/22 07:27:08;;;;;;;9.23;3.43;;;;;;;19.42;97.37;101258.03;5094929;28;20982;-70
2022/08/22 07:29:45;;;;;;;7.70;4.07;;;;;;;19.49;96.74;101251.97;5095162;28;20560;-69
2022/08/22 07:32:17;;;;;;;5.97;2.57;;;;;;;19.60;96.71;101260.53;5095543;28;20424;-69
2022/08/22 07:35:00;;;;;;;13.13;2.80;;;;;;;19.66;96.30;101259.19;5095463;28;20430;-69
2022/08/22 07:37:42;;;;;;;6.70;2.97;;;;;;;19.77;95.73;101262.25;5095222;28;20467;-69
2022/08/22 07:40:18;;;;;;;4.63;2.20;;;;;;;19.83;95.29;101264.44;5095183;28;20429;-69
2022/08/22 07:42:51;;;;;;;8.60;3.43;;;;;;;19.94;95.24;101259.25;5095282;28;20523;-69
2022/08/22 07:45:25;;;;;;;10.33;3.50;;;;;;;19.96;94.50;101264.38;5095278;28;20435;-69
2022/08/22 07:48:03;;;;;;;6.23;2.40;;;;;;;20.06;93.96;101263.91;5095042;28;20460;-69
2022/08/22 07:50:34;;;;;;;6.40;2.90;;;;;;;20.22;93.02;101264.75;5094081;28;20998;-69
2022/08/22 07:53:09;;;;;;;8.13;2.70;;;;;;;20.33;93.20;101265.06;5095053;28;20425;-69
2022/08/22 07:55:37;;;;;;;8.27;2.83;;;;;;;20.39;93.43;101261.72;5095056;28;20486;-69
2022/08/22 07:58:06;;;;;;;5.13;2.53;;;;;;;20.47;92.60;101268.22;5094808;28;20472;-69
2022/08/22 08:00:34;;;;;;;7.73;2.70;;;;;;;20.55;91.12;101267.28;5094839;28;20444;-69
2022/08/22 08:03:04;;;;;;;6.13;2.93;;;;;;;20.65;90.99;101258.50;5094829;28;20447;-69
2022/08/22 08:05:34;;;;;;;6.57;2.73;;;;;;;20.72;91.44;101262.59;5094841;28;20433;-69
2022/08/22 08:08:12;;;;;;;8.93;1.87;;;;;;;20.78;90.24;101259.25;5094730;28;20499;-71
2022/08/22 08:10:40;;;;;;;6.10;2.43;;;;;;;20.86;89.78;101269.28;5094423;28;20993;-73
2022/08/22 08:13:11;;;;;;;5.80;2.67;;;;;;;20.97;88.38;101268.75;5094677;28;20437;-75
2022/08/22 08:15:40;;;;;;;8.63;3.47;;;;;;;21.09;87.86;101265.94;5094635;28;20425;-74
2022/08/22 08:18:17;;;;;;;8.87;3.73;;;;;;;21.20;86.66;101263.41;5094429;28;20476;-75
2022/08/22 08:20:49;;;;;;;9.70;2.87;;;;;;;21.31;86.51;101262.56;5094375;28;20922;-70
2022/08/22 08:23:18;;;;;;;11.77;3.70;;;;;;;21.43;86.05;101264.41;5094443;28;20523;-70
2022/08/22 08:25:53;;;;;;;9.70;3.60;;;;;;;21.54;84.98;101267.41;5094363;28;20478;-70
2022/08/22 08:28:35;;;;;;;6.37;2.43;;;;;;;21.66;86.36;101270.06;5093907;28;20471;-71
2022/08/22 08:31:08;;;;;;;5.73;2.30;;;;;;;21.73;84.32;101267.44;5093955;28;20468;-71
2022/08/22 08:33:37;;;;;;;4.40;2.37;;;;;;;21.84;84.32;101274.00;5094198;28;20443;-77
2022/08/22 08:36:15;;;;;;;6.63;2.13;;;;;;;21.91;83.78;101268.66;5094595;28;20464;-73
2022/08/22 08:38:50;;;;;;;7.53;2.47;;;;;;;22.02;83.23;101270.84;5094016;28;20456;-69
2022/08/22 08:41:36;;;;;;;4.20;1.47;;;;;;;22.06;80.91;101264.22;5094133;28;20431;-69
2022/08/22 08:44:14;;;;;;;5.93;1.77;;;;;;;22.16;78.86;101263.66;5094048;28;20421;-69
2022/08/22 08:47:01;;;;;;;4.50;1.40;;;;;;;22.29;78.13;101269.84;5093766;28;20431;-69
2022/08/22 08:49:42;;;;;;;7.00;1.60;;;;;;;22.40;76.60;101265.34;5093638;28;20903;-73
2022/08/22 08:52:28;;;;;;;3.83;1.67;;;;;;;22.54;78.10;101266.78;5094008;28;20478;-70
2022/08/22 08:55:09;;;;;;;3.53;1.13;;;;;;;22.61;78.50;101255.84;5094040;28;20455;-71
2022/08/22 08:57:48;;;;;;;9.73;1.53;;;;;;;22.73;78.37;101255.69;5093811;28;20468;-71
2022/08/22 09:00:21;;;;;;;3.37;1.40;;;;;;;22.84;78.03;101256.69;5093757;28;20417;-71
2022/08/22 09:02:54;;;;;;;5.53;1.50;;;;;;;22.94;77.85;101254.50;5092910;28;20460;-70
2022/08/22 09:05:47;;;;;;;12.80;1.37;;;;;;;22.92;73.51;101252.88;5093373;28;20927;-70
2022/08/22 09:08:42;;;;;;;4.20;1.20;;;;;;;23.08;73.21;101260.25;5093632;28;20471;-71
2022/08/22 09:11:50;;;;;;;4.27;1.53;;;;;;;23.19;73.59;101257.66;5087629;28;20990;-71
2022/08/22 09:14:49;;;;;;;4.57;1.70;;;;;;;23.30;73.51;101264.16;5075822;28;20448;-75
2022/08/22 09:17:52;;;;;;;3.40;1.27;;;;;;;23.41;72.44;101259.56;5066490;28;20476;-71
2022/08/22 09:20:30;;;;;;;3.63;1.30;;;;;;;23.47;71.97;101252.59;5075681;28;20440;-71
2022/08/22 09:23:30;;;;;;;3.83;1.63;;;;;;;23.55;70.60;101268.13;5093474;28;20786;-71
2022/08/22 09:26:01;;;;;;;3.43;1.30;;;;;;;23.53;67.33;101264.09;5088248;28;20456;-71
2022/08/22 09:28:35;;;;;;;2.90;1.03;;;;;;;23.56;66.58;101268.91;5092982;28;21073;-71
2022/08/22 09:31:15;;;;;;;4.37;1.30;;;;;;;23.66;67.38;101269.06;5093323;28;20555;-71
2022/08/22 09:33:52;;;;;;;3.10;1.20;;;;;;;23.67;64.04;101273.44;5093335;28;20440;-71
2022/08/22 09:36:24;;;;;;;4.57;1.17;;;;;;;23.79;65.48;101269.66;5093358;28;20432;-71
2022/08/22 09:38:57;;;;;;;3.60;1.10;;;;;;;23.86;65.64;101278.06;5093058;28;20577;-71
2022/08/22 09:41:37;;;;;;;2.90;1.10;;;;;;;23.99;64.81;101263.97;5093212;28;20428;-71
2022/08/22 09:44:16;;;;;;;2.67;0.87;;;;;;;24.02;63.31;101268.75;5093178;28;20439;-71
2022/08/22 09:46:54;;;;;;;4.17;1.30;;;;;;;24.14;61.97;101274.06;5093107;28;20519;-71
2022/08/22 09:49:32;;;;;;;4.50;1.40;;;;;;;24.11;61.78;101266.50;5093122;28;20420;-71
2022/08/22 09:52:05;;;;;;;3.07;1.17;;;;;;;24.25;61.99;101274.19;5092792;28;20471;-71
2022/08/22 09:54:39;;;;;;;3.33;1.10;;;;;;;24.44;63.59;101267.69;5093130;28;20432;-71
2022/08/22 09:57:17;;;;;;;7.60;1.23;;;;;;;24.45;61.96;101270.09;5093007;28;20804;-71
2022/08/22 09:59:54;;;;;;;5.20;1.30;;;;;;;24.48;60.55;101276.84;5093197;28;20478;-71
2022/08/22 10:02:30;;;;;;;3.53;1.10;;;;;;;24.61;61.37;101264.31;5093080;28;20435;-71
2022/08/22 10:05:05;;;;;;;3.90;1.30;;;;;;;24.76;63.12;101281.91;5092687;28;20903;-71
2022/08/22 10:07:40;;;;;;;4.37;0.87;;;;;;;24.84;61.66;101273.28;5092963;28;20542;-71
2022/08/22 10:10:39;;;;;;;11.83;1.40;;;;;;;24.87;57.96;101274.47;5092962;28;20607;-71
2022/08/22 10:13:18;;;;;;;2.60;0.80;;;;;;;24.92;59.51;101268.56;5094165;28;20432;-71
2022/08/22 10:16:04;;;;;;;2.93;1.00;;;;;;;25.01;61.17;101273.78;5096865;28;20493;-70
2022/08/22 10:18:37;;;;;;;3.60;1.10;;;;;;;25.10;60.70;101265.97;5096905;28;20464;-71
2022/08/22 10:21:11;;;;;;;2.90;1.13;;;;;;;25.18;59.27;101270.41;5096847;28;20796;-71
2022/08/22 10:23:44;;;;;;;2.70;0.80;;;;;;;25.28;58.94;101277.22;5096988;28;20805;-71
2022/08/22 10:26:21;;;;;;;2.77;0.80;;;;;;;25.39;61.05;101273.34;5096815;28;20421;-71
2022/08/22 10:28:54;;;;;;;3.70;1.00;;;;;;;25.21;56.21;101269.63;5117716;23;21059;-67
2022/08/22 10:31:27;;;;;;;2.80;0.77;;;;;;;25.20;55.60;101279.16;5096567;28;20460;-67
2022/08/22 10:34:03;;;;;;;5.20;1.47;;;;;;;25.21;52.89;101277.16;5096686;28;20428;-68
2022/08/22 10:36:39;;;;;;;5.43;1.30;;;;;;;25.28;53.21;101275.25;5096761;28;20424;-67
2022/08/22 10:39:10;;;;;;;3.00;0.87;;;;;;;25.31;55.15;101277.25;5096547;28;20467;-67
2022/08/22 10:41:43;;;;;;;2.77;0.93;;;;;;;25.35;54.27;101275.28;5096562;28;20428;-67
2022/08/22 10:44:16;;;;;;;2.87;1.13;;;;;;;25.42;55.52;101269.81;5096634;28;20433;-67
2022/08/22 10:46:52;;;;;;;2.80;0.90;;;;;;;25.53;55.31;101269.84;5096388;28;20427;-67
2022/08/22 10:49:25;;;;;;;2.60;0.80;;;;;;;25.64;52.54;101272.72;5096359;28;20459;-67
2022/08/22 10:51:59;;;;;;;7.30;1.63;;;;;;;25.56;51.51;101274.66;5096188;28;20465;-67
2022/08/22 10:54:37;;;;;;;3.27;1.20;;;;;;;25.59;52.63;101268.34;5096298;28;20804;-67
2022/08/22 10:57:21;;;;;;;2.80;1.10;;;;;;;25.67;51.52;101269.16;5096434;28;20424;-67
2022/08/22 10:59:57;;;;;;;3.07;1.07;;;;;;;25.77;52.89;101274.00;5096281;28;20468;-66
2022/08/22 11:02:40;;;;;;;9.33;1.17;;;;;;;26.04;53.99;101277.31;5096173;28;20424;-67
2022/08/22 11:05:27;;;;;;;2.93;0.97;;;;;;;26.15;49.80;101280.91;5095902;28;20424;-67
2022/08/22 11:08:06;;;;;;;3.20;1.10;;;;;;;26.26;50.66;101272.63;5095793;28;20452;-68
2022/08/22 11:10:50;;;;;;;2.77;0.80;;;;;;;26.42;48.72;101264.72;5095919;28;20468;-67
2022/08/22 11:13:29;;;;;;;2.77;0.97;;;;;;;26.46;47.19;101263.97;5096055;28;20435;-67
2022/08/22 11:16:07;;;;;;;5.30;0.90;;;;;;;26.35;47.65;101267.50;5096007;28;20425;-67
2022/08/22 11:18:51;;;;;;;2.50;0.73;;;;;;;26.46;47.06;101269.53;5095505;28;20833;-67
2022/08/22 11:21:28;;;;;;;3.17;0.97;;;;;;;26.67;47.08;101269.59;5095808;28;20427;-67
2022/08/22 11:24:05;;;;;;;3.60;0.90;;;;;;;26.92;46.66;101264.84;5095418;28;20460;-67
2022/08/22 11:26:40;;;;;;;6.80;0.77;;;;;;;27.14;45.60;101264.88;5095046;28;20485;-67
2022/08/22 11:29:36;;;;;;;2.70;0.73;;;;;;;27.08;45.47;101266.44;5095073;28;20478;-70
2022/08/22 11:32:13;;;;;;;2.60;0.80;;;;;;;26.98;47.78;101265.25;5082076;28;20953;-66
2022/08/22 11:34:51;;;;;;;3.10;0.90;;;;;;;27.52;47.58;101263.22;5095540;28;20421;-69
2022/08/22 11:37:32;;;;;;;2.70;0.73;;;;;;;28.12;47.48;101259.50;5095379;28;20427;-68
2022/08/22 11:40:13;;;;;;;2.83;1.03;;;;;;;28.97;44.50;101259.41;5095568;28;20433;-68
2022/08/22 11:42:46;;;;;;;2.40;0.50;;;;;;;29.81;43.42;101265.34;5095399;28;20421;-68
2022/08/22 11:45:19;;;;;;;3.17;0.90;;;;;;;30.28;41.51;101265.59;5095104;28;20416;-68
2022/08/22 11:47:56;;;;;;;2.90;0.63;;;;;;;30.88;41.69;101272.31;5095150;28;20479;-69
2022/08/22 11:50:36;;;;;;;3.07;1.17;;;;;;;31.19;40.81;101275.00;5094850;28;20843;-68
2022/08/22 11:53:24;;;;;;;4.70;1.27;;;;;;;31.63;39.29;101270.22;5095091;28;20482;-68
2022/08/22 11:56:03;;;;;;;5.33;0.90;;;;;;;31.85;39.98;101265.78;5094687;28;20448;-68
2022/08/22 11:58:43;;;;;;;3.33;0.90;;;;;;;31.93;37.88;101276.88;5094889;28;20865;-68
2022/08/22 12:01:13;;;;;;;2.47;0.90;;;;;;;31.74;38.20;101270.78;5095099;28;20460;-68
2022/08/22 12:03:51;;;;;;;4.17;1.30;;;;;;;31.58;38.16;101270.72;5094943;28;20429;-68
2022/08/22 12:06:38;;;;;;;4.53;0.93;;;;;;;31.55;39.80;101274.38;5094820;28;20423;-68
2022/08/22 12:09:13;;;;;;;2.43;0.70;;;;;;;31.24;37.90;101276.50;5094817;28;20464;-68
2022/08/22 12:11:49;;;;;;;3.27;1.23;;;;;;;31.11;38.65;101270.72;5094708;28;20455;-68